Airfield :
LOGIN :

Register | Disclaimer

   EN    FR    IT 

 










Legend :    VFR   Marginal VFR   IFR   Intensive IFR   Very Intensive IFR
Visi :
Ceiling :
>= 8 km
>= 3000ft
5 to 8 km
1000 to 3000 ft
1500m to 5 km
500 to 1000 ft
800 to 1500m
200 to 500 ft
< 800m
< 200 ft
Symbols :   Thunderstorms  Fog  Heavy snow  Heavy precipitations  Wind > 20 kt
SIGMETs :     Misc.  Thunderstorms  Icing  Turbulence  Mountain Waves  Volcanic Ashes







- Airport Elevation : 235 ft
- IATA code : BZG


EPBY - Bydgoszcz

CURRENT METAR :
  • 182100Z 26013KT 9999 BKN007 OVC010 03/02 Q1005

EXPIRED METARs :
  • 182030Z 24011KT 9999 -RA SCT006 OVC008 02/01 Q1005
  • 182000Z 23014KT 9000 -RA BKN006 OVC008 02/01 Q1005
  • 181930Z 23012KT 9000 -RA BKN007 OVC010 02/01 Q1005
  • 181900Z 22013KT 8000 -RA BKN008 OVC011 03/01 Q1005
  • 181830Z 23015KT 190V250 6000 -RA FEW008 BKN014 OVC016 03/01 Q1006

TAF TAF EPBY
Valid from the 18 at 18:00 until the 19 at 18:00 UTC


181730Z 1818/1918 22012KT 9999 BKN020
TEMPO 1818/1823 4000 RA BKN007 BKN014
PROB40
TEMPO 1818/1823 24015G28KT SHRA BKN010CB
PROB40 1823/1904 BKN010
TEMPO 1904/1918 24017G32KT 4000 SHRAGS BKN005 BKN012CB
No reported NOTAMs for that airfield.



MET'MAP, your aeronautical weather chart ! - Copyright ORBIFLY December 2007 - Disclaimer

ORBIFLY MET'MAP TEAM :

Programming & Development : Alexandra Zaïnal
Concept & Development : Baudouin d'Aumeries
Co-Development & Prog : Marc-Olivier Méhu
Technical & hardware support : Manuel Goepfert

Contact : metmap@orbifly.com




SOURCES & CREDITS :

   NOAA